Time,TemperatureF,DewpointF,PressureIn,WindDirection,WindDirectionDegrees,WindSpeedMPH,WindSpeedGustMPH,Humidity,HourlyPrecipIn,Conditions,Clouds,dailyrainin,SoftwareType,DateUTC
2013-03-04 00:02:00,26.1,18.0,29.97,SSW,194,2.0,7.0,70,0.00,,,0.00,weatherlink.com 1.10,2013-03-04 05:02:00,
2013-03-04 00:17:00,26.0,18.0,29.97,SSW,198,1.0,7.0,71,0.00,,,0.00,weatherlink.com 1.10,2013-03-04 05:17:00,
2013-03-04 00:32:00,25.8,17.0,29.97,SSW,198,3.0,7.0,70,0.00,,,0.00,weatherlink.com 1.10,2013-03-04 05:32:00,
2013-03-04 00:47:00,25.7,17.0,29.97,South,170,2.0,9.0,69,0.00,,,0.00,weatherlink.com 1.10,2013-03-04 05:47:00,
2013-03-04 01:02:00,25.7,16.0,29.98,SSE,163,2.0,8.0,68,0.00,,,0.00,weatherlink.com 1.10,2013-03-04 06:02:00,
2013-03-04 01:17:00,25.6,16.0,29.98,South,191,5.0,6.0,68,0.00,,,0.00,weatherlink.com 1.10,2013-03-04 06:17:00,
2013-03-04 01:32:00,25.6,16.0,29.98,NE,40,0.0,6.0,68,0.00,,,0.00,weatherlink.com 1.10,2013-03-04 06:32:00,
2013-03-04 01:47:00,25.5,16.0,29.98,ESE,114,0.0,8.0,68,0.00,,,0.00,weatherlink.com 1.10,2013-03-04 06:47:00,
2013-03-04 02:02:00,25.5,17.0,29.97,West,277,3.0,4.0,69,0.00,,,0.00,weatherlink.com 1.10,2013-03-04 07:02:00,
2013-03-04 02:17:00,25.5,17.0,29.97,WSW,243,2.0,4.0,70,0.00,,,0.00,weatherlink.com 1.10,2013-03-04 07:17:00,
2013-03-04 02:32:00,25.5,17.0,29.97,SW,236,1.0,7.0,69,0.00,,,0.00,weatherlink.com 1.10,2013-03-04 07:32:00,
2013-03-04 02:47:00,25.5,17.0,29.97,SW,235,2.0,6.0,70,0.00,,,0.00,weatherlink.com 1.10,2013-03-04 07:47:00,
2013-03-04 03:02:00,25.5,17.0,29.97,West,263,1.0,3.0,70,0.00,,,0.00,weatherlink.com 1.10,2013-03-04 08:02:00,
2013-03-04 03:17:00,25.5,17.0,29.97,West,265,4.0,7.0,71,0.00,,,0.00,weatherlink.com 1.10,2013-03-04 08:17:00,
2013-03-04 03:32:00,25.5,18.0,29.97,SW,219,1.0,6.0,72,0.00,,,0.00,weatherlink.com 1.10,2013-03-04 08:32:00,
2013-03-04 03:47:00,25.5,18.0,29.98,SSW,193,8.0,9.0,73,0.00,,,0.00,weatherlink.com 1.10,2013-03-04 08:47:00,
2013-03-04 04:02:00,25.6,18.0,29.98,WSW,246,4.0,8.0,74,0.00,,,0.00,weatherlink.com 1.10,2013-03-04 09:02:00,
2013-03-04 04:17:00,25.5,18.0,29.99,West,269,2.0,9.0,74,0.00,,,0.00,weatherlink.com 1.10,2013-03-04 09:17:00,
2013-03-04 04:32:00,25.6,19.0,29.99,SW,229,4.0,6.0,75,0.00,,,0.00,weatherlink.com 1.10,2013-03-04 09:32:00,
2013-03-04 04:47:00,25.6,19.0,29.99,South,182,2.0,9.0,75,0.00,,,0.00,weatherlink.com 1.10,2013-03-04 09:47:00,
2013-03-04 05:02:00,25.6,19.0,29.99,SW,230,1.0,8.0,75,0.00,,,0.00,weatherlink.com 1.10,2013-03-04 10:02:00,
2013-03-04 05:17:00,25.5,19.0,29.99,WNW,282,1.0,7.0,76,0.00,,,0.00,weatherlink.com 1.10,2013-03-04 10:17:00,
2013-03-04 05:32:00,25.4,19.0,29.99,WSW,243,4.0,4.0,76,0.00,,,0.00,weatherlink.com 1.10,2013-03-04 10:32:00,
2013-03-04 05:47:00,25.2,19.0,30.00,South,191,0.0,4.0,77,0.00,,,0.00,weatherlink.com 1.10,2013-03-04 10:47:00,
2013-03-04 06:02:00,25.1,19.0,30.00,SW,217,3.0,5.0,78,0.00,,,0.00,weatherlink.com 1.10,2013-03-04 11:02:00,
2013-03-04 06:17:00,24.8,19.0,30.00,NNE,33,0.0,4.0,79,0.00,,,0.00,weatherlink.com 1.10,2013-03-04 11:17:00,
2013-03-04 06:32:00,24.8,19.0,30.00,ESE,119,4.0,9.0,79,0.00,,,0.00,weatherlink.com 1.10,2013-03-04 11:32:00,
2013-03-04 06:47:00,25.0,19.0,30.01,SSE,150,4.0,7.0,79,0.00,,,0.00,weatherlink.com 1.10,2013-03-04 11:47:00,
2013-03-04 07:02:00,25.2,19.0,30.01,SSE,147,4.0,11.0,78,0.00,,,0.00,weatherlink.com 1.10,2013-03-04 12:02:00,
2013-03-04 07:17:00,25.5,20.0,30.01,SSE,164,5.0,6.0,78,0.00,,,0.00,weatherlink.com 1.10,2013-03-04 12:17:00,
2013-03-04 07:32:00,26.0,19.0,30.01,ESE,113,1.0,9.0,76,0.00,,,0.00,weatherlink.com 1.10,2013-03-04 12:32:00,
2013-03-04 07:47:00,26.5,20.0,30.01,South,176,6.0,8.0,75,0.00,,,0.00,weatherlink.com 1.10,2013-03-04 12:47:00,
2013-03-04 08:02:00,27.2,20.0,30.02,South,184,5.0,10.0,73,0.00,,,0.00,weatherlink.com 1.10,2013-03-04 13:02:00,
2013-03-04 08:17:00,27.1,20.0,30.01,SSW,202,4.0,11.0,73,0.00,,,0.00,weatherlink.com 1.10,2013-03-04 13:17:00,
2013-03-04 08:47:00,28.3,19.0,30.01,SSW,195,4.0,13.0,69,0.00,,,0.00,weatherlink.com 1.10,2013-03-04 13:47:00,
2013-03-04 09:02:00,29.0,19.0,30.01,ENE,64,4.0,11.0,67,0.00,,,0.00,weatherlink.com 1.10,2013-03-04 14:02:00,
2013-03-04 09:17:00,29.8,19.0,30.01,SSW,203,7.0,15.0,65,0.00,,,0.00,weatherlink.com 1.10,2013-03-04 14:17:00,
2013-03-04 09:32:00,30.4,19.0,30.01,SSW,205,10.0,17.0,63,0.00,,,0.00,weatherlink.com 1.10,2013-03-04 14:32:00,
2013-03-04 09:48:00,30.6,19.0,30.01,South,171,5.0,17.0,63,0.00,,,0.00,weatherlink.com 1.10,2013-03-04 14:48:00,
2013-03-04 10:03:00,32.0,19.0,30.01,South,173,7.0,18.0,60,0.00,,,0.00,weatherlink.com 1.10,2013-03-04 15:03:00,
2013-03-04 10:18:00,32.2,20.0,30.01,SE,135,6.0,16.0,60,0.00,,,0.00,weatherlink.com 1.10,2013-03-04 15:18:00,
2013-03-04 10:33:00,32.2,20.0,30.02,South,181,3.0,17.0,60,0.00,,,0.00,weatherlink.com 1.10,2013-03-04 15:33:00,
2013-03-04 10:48:00,32.9,19.0,30.01,NNW,343,1.0,9.0,58,0.00,,,0.00,weatherlink.com 1.10,2013-03-04 15:48:00,
2013-03-04 11:03:00,34.6,20.0,30.01,SW,227,2.0,14.0,56,0.00,,,0.00,weatherlink.com 1.10,2013-03-04 16:03:00,
2013-03-04 11:18:00,34.9,20.0,30.00,SE,138,4.0,15.0,55,0.00,,,0.00,weatherlink.com 1.10,2013-03-04 16:18:00,
2013-03-04 11:33:00,35.7,20.0,30.00,NE,42,5.0,12.0,54,0.00,,,0.00,weatherlink.com 1.10,2013-03-04 16:33:00,
2013-03-04 11:48:00,36.4,20.0,30.00,South,175,3.0,12.0,52,0.00,,,0.00,weatherlink.com 1.10,2013-03-04 16:48:00,
2013-03-04 12:03:00,36.3,20.0,30.00,SE,136,1.0,17.0,51,0.00,,,0.00,weatherlink.com 1.10,2013-03-04 17:03:00,
2013-03-04 12:18:00,37.1,21.0,29.99,South,169,3.0,15.0,52,0.00,,,0.00,weatherlink.com 1.10,2013-03-04 17:18:00,
2013-03-04 12:33:00,37.1,20.0,29.99,South,182,8.0,11.0,50,0.00,,,0.00,weatherlink.com 1.10,2013-03-04 17:33:00,
2013-03-04 12:48:00,36.1,20.0,29.98,South,172,3.0,17.0,52,0.00,,,0.00,weatherlink.com 1.10,2013-03-04 17:48:00,
2013-03-04 13:03:00,35.9,20.0,29.97,NW,319,4.0,19.0,53,0.00,,,0.00,weatherlink.com 1.10,2013-03-04 18:03:00,
2013-03-04 13:18:00,37.1,21.0,29.97,SSE,148,7.0,16.0,52,0.00,,,0.00,weatherlink.com 1.10,2013-03-04 18:18:00,
2013-03-04 13:33:00,38.2,21.0,29.97,WSW,252,6.0,15.0,50,0.00,,,0.00,weatherlink.com 1.10,2013-03-04 18:33:00,
2013-03-04 13:48:00,38.3,21.0,29.97,South,184,6.0,16.0,50,0.00,,,0.00,weatherlink.com 1.10,2013-03-04 18:48:00,
2013-03-04 14:03:00,38.1,21.0,29.98,SW,219,5.0,20.0,51,0.00,,,0.00,weatherlink.com 1.10,2013-03-04 19:03:00,
2013-03-04 14:18:00,37.8,21.0,29.98,WNW,288,2.0,17.0,52,0.00,,,0.00,weatherlink.com 1.10,2013-03-04 19:18:00,
2013-03-04 14:33:00,37.8,21.0,29.98,South,169,4.0,18.0,50,0.00,,,0.00,weatherlink.com 1.10,2013-03-04 19:33:00,
2013-03-04 14:48:00,35.4,20.0,29.98,SW,226,9.0,18.0,54,0.00,,,0.00,weatherlink.com 1.10,2013-03-04 19:48:00,
2013-03-04 15:03:00,34.8,20.0,29.99,WSW,245,7.0,13.0,56,0.00,,,0.00,weatherlink.com 1.10,2013-03-04 20:03:00,
2013-03-04 15:18:00,34.5,20.0,29.99,South,191,3.0,18.0,56,0.00,,,0.00,weatherlink.com 1.10,2013-03-04 20:18:00,
2013-03-04 15:33:00,34.4,21.0,30.00,SSE,155,12.0,18.0,58,0.00,,,0.00,weatherlink.com 1.10,2013-03-04 20:33:00,
2013-03-04 15:48:00,34.4,20.0,30.00,NW,309,0.0,19.0,57,0.00,,,0.00,weatherlink.com 1.10,2013-03-04 20:48:00,
2013-03-04 16:03:00,33.7,20.0,30.00,SSW,210,7.0,14.0,58,0.00,,,0.00,weatherlink.com 1.10,2013-03-04 21:03:00,
2013-03-04 16:18:00,33.3,20.0,30.00,West,274,4.0,16.0,59,0.00,,,0.00,weatherlink.com 1.10,2013-03-04 21:18:00,
2013-03-04 16:33:00,33.4,21.0,30.01,SSW,209,2.0,10.0,60,0.00,,,0.00,weatherlink.com 1.10,2013-03-04 21:33:00,
2013-03-04 16:48:00,33.2,20.0,30.01,SSW,194,9.0,14.0,59,0.00,,,0.00,weatherlink.com 1.10,2013-03-04 21:48:00,
2013-03-04 17:03:00,32.6,20.0,30.02,South,182,4.0,13.0,60,0.00,,,0.00,weatherlink.com 1.10,2013-03-04 22:03:00,
2013-03-04 17:18:00,32.3,20.0,30.02,NW,322,3.0,12.0,60,0.00,,,0.00,weatherlink.com 1.10,2013-03-04 22:18:00,
2013-03-04 17:33:00,32.0,20.0,30.03,West,275,4.0,12.0,61,0.00,,,0.00,weatherlink.com 1.10,2013-03-04 22:33:00,
2013-03-04 18:03:00,31.0,19.0,30.04,South,184,5.0,17.0,62,0.00,,,0.00,weatherlink.com 1.10,2013-03-04 23:03:00,
2013-03-04 18:18:00,30.5,20.0,30.05,NW,308,2.0,12.0,64,0.00,,,0.00,weatherlink.com 1.10,2013-03-04 23:18:00,
2013-03-04 18:33:00,30.2,20.0,30.05,SSW,209,10.0,13.0,65,0.00,,,0.00,weatherlink.com 1.10,2013-03-04 23:33:00,
2013-03-04 18:49:00,30.1,20.0,30.05,SSW,211,8.0,20.0,65,0.00,,,0.00,weatherlink.com 1.10,2013-03-04 23:49:00,
2013-03-04 19:04:00,29.9,20.0,30.05,SSW,209,4.0,15.0,66,0.00,,,0.00,weatherlink.com 1.10,2013-03-05 00:04:00,
2013-03-04 19:19:00,29.7,20.0,30.06,WNW,299,7.0,13.0,66,0.00,,,0.00,weatherlink.com 1.10,2013-03-05 00:19:00,
2013-03-04 19:34:00,29.5,20.0,30.06,WSW,252,2.0,16.0,67,0.00,,,0.00,weatherlink.com 1.10,2013-03-05 00:34:00,
2013-03-04 19:49:00,29.3,20.0,30.07,South,172,4.0,11.0,67,0.00,,,0.00,weatherlink.com 1.10,2013-03-05 00:49:00,
2013-03-04 20:04:00,29.2,19.0,30.08,WSW,250,3.0,11.0,67,0.00,,,0.00,weatherlink.com 1.10,2013-03-05 01:04:00,
2013-03-04 20:19:00,29.1,19.0,30.08,WSW,247,5.0,12.0,67,0.00,,,0.00,weatherlink.com 1.10,2013-03-05 01:19:00,
2013-03-04 20:34:00,29.0,19.0,30.09,West,278,1.0,14.0,67,0.00,,,0.00,weatherlink.com 1.10,2013-03-05 01:34:00,
2013-03-04 20:49:00,28.8,19.0,30.09,WSW,237,4.0,13.0,67,0.00,,,0.00,weatherlink.com 1.10,2013-03-05 01:49:00,
2013-03-04 21:04:00,28.9,19.0,30.10,North,360,1.0,13.0,67,0.00,,,0.00,weatherlink.com 1.10,2013-03-05 02:04:00,
2013-03-04 21:19:00,28.9,19.0,30.10,SW,228,5.0,11.0,67,0.00,,,0.00,weatherlink.com 1.10,2013-03-05 02:19:00,
2013-03-04 21:34:00,29.0,20.0,30.11,WSW,252,1.0,14.0,68,0.00,,,0.00,weatherlink.com 1.10,2013-03-05 02:34:00,
2013-03-04 21:49:00,29.1,20.0,30.11,SSW,211,4.0,15.0,68,0.00,,,0.00,weatherlink.com 1.10,2013-03-05 02:49:00,
2013-03-04 22:04:00,29.1,20.0,30.11,WSW,240,5.0,7.0,69,0.00,,,0.00,weatherlink.com 1.10,2013-03-05 03:04:00,
2013-03-04 22:19:00,29.1,20.0,30.11,SW,235,4.0,9.0,69,0.00,,,0.00,weatherlink.com 1.10,2013-03-05 03:19:00,
2013-03-04 22:34:00,29.1,20.0,30.11,WSW,244,1.0,12.0,69,0.00,,,0.00,weatherlink.com 1.10,2013-03-05 03:34:00,
2013-03-04 22:49:00,29.0,20.0,30.12,West,261,4.0,9.0,70,0.00,,,0.00,weatherlink.com 1.10,2013-03-05 03:49:00,
2013-03-04 23:04:00,29.1,20.0,30.12,SW,236,6.0,9.0,70,0.00,,,0.00,weatherlink.com 1.10,2013-03-05 04:04:00,
2013-03-04 23:19:00,29.2,21.0,30.12,West,267,6.0,9.0,70,0.00,,,0.00,weatherlink.com 1.10,2013-03-05 04:19:00,
2013-03-04 23:34:00,29.2,21.0,30.13,SW,227,5.0,8.0,70,0.00,,,0.00,weatherlink.com 1.10,2013-03-05 04:34:00,
2013-03-04 23:49:00,29.4,21.0,30.13,WSW,247,5.0,12.0,70,0.00,,,0.00,weatherlink.com 1.10,2013-03-05 04:49:00,